Forside
METAR-TAF:

METAR-TAF

Lufthavne :

DeKalb Taylor Municipal Airport

DeKalb, Illinois, USA

Breddekreds: 41-55-55N, længdekreds: 088-42-30W, højde: 279 m

Aktuelle vejr

Denne rapport blev lavet for 17 minutter siden, kl. 17:35 UTC
Vind 10 kt fra sydøst
Temperatur 2°C
Fugtighed 75%
Tryk 1016 hPa
Sigt: 16.1 km
Brudte skyer i en højde af 4300 ft
Brudte skyer i en højde af 5000 ft
Overskyet i en højde af 5500 ft
let finregn

METAR: KDKB 171735Z AUTO 13010KT 10SM -DZ BKN043 BKN050 OVC055 02/M02 A3000 RMK AO2 T00201017

Tid: 11:52 (17:52 UTC)


TAF: fraværende

Vejrobservationer og prognoser fra mere end 4000 lufthavne (METAR og TAF).

De gule og røde prikker repræsenterer de meteorologiske stationer.

Flyt musen over at se navnet på stationen.

Så klik over at se vejr observationer og prognoser.

At skifte det kort: Klik på de grønne knapper med et sort kors for at zoome ind; på den grønne knap med en bindestreg for at zoome ud; eller på de grønne pile for tilstødende kort.


METAR-TAF: